Time,TemperatureF,DewpointF,PressureIn,WindDirection,WindDirectionDegrees,WindSpeedMPH,WindSpeedGustMPH,Humidity,HourlyPrecipIn,Conditions,Clouds,dailyrainin,SoftwareType,DateUTC
2016-02-11 00:02:00,51.1,44.5,30.29,North,360,2.0,4.0,78,0.00,,---,0.00,VWS V15.00,2016-02-11 05:02:00,
2016-02-11 00:07:00,51.1,44.5,30.30,North,360,0.0,0.0,78,0.00,,---,0.00,VWS V15.00,2016-02-11 05:07:00,
2016-02-11 00:12:00,51.2,44.6,30.29,North,360,2.0,4.0,78,0.00,,---,0.00,VWS V15.00,2016-02-11 05:12:00,
2016-02-11 00:17:00,51.2,44.2,30.29,NNE,15,5.0,5.0,77,0.00,,---,0.00,VWS V15.00,2016-02-11 05:17:00,
2016-02-11 00:22:00,51.2,44.2,30.29,NNE,17,5.0,5.0,77,0.00,,---,0.00,VWS V15.00,2016-02-11 05:22:00,
2016-02-11 00:27:00,51.2,44.2,30.29,NNE,17,2.0,2.0,77,0.00,,---,0.00,VWS V15.00,2016-02-11 05:27:00,
2016-02-11 00:33:00,51.0,44.0,30.29,NNE,17,2.0,5.0,77,0.00,,---,0.00,VWS V15.00,2016-02-11 05:33:00,
2016-02-11 00:38:00,50.8,43.9,30.29,NNE,18,1.0,6.0,77,0.00,,---,0.00,VWS V15.00,2016-02-11 05:38:00,
2016-02-11 00:43:00,50.6,43.7,30.28,NNE,19,4.0,6.0,77,0.00,,---,0.00,VWS V15.00,2016-02-11 05:43:00,
2016-02-11 00:49:00,50.6,44.0,30.28,NNE,25,2.0,5.0,78,0.00,,---,0.00,VWS V15.00,2016-02-11 05:49:00,
2016-02-11 00:54:00,50.6,43.7,30.28,NNE,25,1.0,3.0,77,0.00,,---,0.00,VWS V15.00,2016-02-11 05:54:00,
2016-02-11 01:04:00,50.8,43.9,30.28,NNE,25,1.0,4.0,77,0.00,,---,0.00,VWS V15.00,2016-02-11 06:04:00,
2016-02-11 01:09:00,50.8,43.9,30.28,NNE,25,2.0,2.0,77,0.00,,---,0.00,VWS V15.00,2016-02-11 06:09:00,
2016-02-11 01:14:00,50.8,43.5,30.28,NNE,25,0.0,3.0,76,0.00,,---,0.00,VWS V15.00,2016-02-11 06:14:00,
2016-02-11 01:19:00,50.9,43.6,30.29,NNE,25,0.0,2.0,76,0.00,,---,0.00,VWS V15.00,2016-02-11 06:19:00,
2016-02-11 01:25:00,50.9,43.3,30.28,NNE,25,1.0,3.0,75,0.00,,---,0.00,VWS V15.00,2016-02-11 06:25:00,
2016-02-11 01:30:00,50.9,43.3,30.28,NNE,25,1.0,3.0,75,0.00,,---,0.00,VWS V15.00,2016-02-11 06:30:00,
2016-02-11 01:35:00,50.9,43.3,30.28,NNE,25,0.0,2.0,75,0.00,,---,0.00,VWS V15.00,2016-02-11 06:35:00,
2016-02-11 01:40:00,50.9,43.3,30.27,NNE,25,0.0,3.0,75,0.00,,---,0.00,VWS V15.00,2016-02-11 06:40:00,
2016-02-11 01:45:00,50.9,43.3,30.27,NNE,25,0.0,3.0,75,0.00,,---,0.00,VWS V15.00,2016-02-11 06:45:00,
2016-02-11 01:50:00,50.9,43.3,30.27,NNE,25,0.0,3.0,75,0.00,,---,0.00,VWS V15.00,2016-02-11 06:50:00,
2016-02-11 01:55:00,50.9,43.3,30.27,NNE,25,0.0,2.0,75,0.00,,---,0.00,VWS V15.00,2016-02-11 06:55:00,
2016-02-11 02:05:00,50.8,43.5,30.26,NNE,25,0.0,0.0,76,0.00,,---,0.00,VWS V15.00,2016-02-11 07:05:00,
2016-02-11 02:11:00,50.7,43.4,30.26,NNE,25,0.0,0.0,76,0.00,,---,0.00,VWS V15.00,2016-02-11 07:11:00,
2016-02-11 02:16:00,50.5,43.2,30.26,NNE,25,0.0,0.0,76,0.00,,---,0.00,VWS V15.00,2016-02-11 07:16:00,
2016-02-11 02:21:00,50.3,43.4,30.26,NNE,25,0.0,0.0,77,0.00,,---,0.00,VWS V15.00,2016-02-11 07:21:00,
2016-02-11 02:26:00,50.0,43.4,30.26,NNE,25,0.0,0.0,78,0.00,,---,0.00,VWS V15.00,2016-02-11 07:26:00,
2016-02-11 02:31:00,49.4,43.5,30.26,NNE,25,0.0,0.0,80,0.00,,---,0.00,VWS V15.00,2016-02-11 07:31:00,
2016-02-11 02:36:00,49.0,42.8,30.26,NNE,25,0.0,0.0,79,0.00,,---,0.00,VWS V15.00,2016-02-11 07:36:00,
2016-02-11 02:42:00,48.6,42.7,30.26,NNE,25,0.0,0.0,80,0.00,,---,0.00,VWS V15.00,2016-02-11 07:42:00,
2016-02-11 02:47:00,48.3,42.8,30.26,NNE,25,0.0,0.0,81,0.00,,---,0.00,VWS V15.00,2016-02-11 07:47:00,
2016-02-11 02:52:00,47.9,42.4,30.26,NNE,25,0.0,0.0,81,0.00,,---,0.00,VWS V15.00,2016-02-11 07:52:00,
2016-02-11 02:57:00,47.6,42.4,30.26,NNE,25,0.0,0.0,82,0.00,,---,0.00,VWS V15.00,2016-02-11 07:57:00,
2016-02-11 03:02:00,47.3,42.7,30.27,NNE,25,0.0,0.0,84,0.00,,---,0.00,VWS V15.00,2016-02-11 08:02:00,
2016-02-11 03:07:00,47.0,42.7,30.26,NNE,25,0.0,0.0,85,0.00,,---,0.00,VWS V15.00,2016-02-11 08:07:00,
2016-02-11 03:12:00,46.8,42.5,30.26,NNE,25,0.0,0.0,85,0.00,,---,0.00,VWS V15.00,2016-02-11 08:12:00,
2016-02-11 03:17:00,46.6,42.3,30.26,NNE,25,0.0,0.0,85,0.00,,---,0.00,VWS V15.00,2016-02-11 08:17:00,
2016-02-11 03:22:00,46.4,42.1,30.26,NNE,25,0.0,0.0,85,0.00,,---,0.00,VWS V15.00,2016-02-11 08:22:00,
2016-02-11 03:32:00,46.2,42.2,30.27,NNE,25,0.0,0.0,86,0.00,,---,0.00,VWS V15.00,2016-02-11 08:32:00,
2016-02-11 03:37:00,46.3,42.7,30.27,NNE,25,0.0,0.0,87,0.00,,---,0.00,VWS V15.00,2016-02-11 08:37:00,
2016-02-11 03:42:00,46.3,42.7,30.27,NNE,25,0.0,0.0,87,0.00,,---,0.00,VWS V15.00,2016-02-11 08:42:00,
2016-02-11 03:47:00,46.4,43.0,30.27,NNE,25,0.0,0.0,88,0.00,,---,0.00,VWS V15.00,2016-02-11 08:47:00,
2016-02-11 03:52:00,46.4,43.0,30.27,NNE,25,0.0,0.0,88,0.00,,---,0.00,VWS V15.00,2016-02-11 08:52:00,
2016-02-11 03:57:00,46.5,43.4,30.27,NNE,25,0.0,0.0,89,0.00,,---,0.00,VWS V15.00,2016-02-11 08:57:00,
2016-02-11 04:02:00,46.9,44.1,30.27,NNE,25,0.0,0.0,90,0.00,,---,0.00,VWS V15.00,2016-02-11 09:02:00,
2016-02-11 04:07:00,46.9,43.8,30.27,NNE,25,0.0,0.0,89,0.00,,---,0.00,VWS V15.00,2016-02-11 09:07:00,
2016-02-11 04:12:00,46.9,43.8,30.27,NNE,25,0.0,0.0,89,0.00,,---,0.00,VWS V15.00,2016-02-11 09:12:00,
2016-02-11 04:22:00,47.6,44.8,30.27,NNE,25,0.0,3.0,90,0.00,,---,0.00,VWS V15.00,2016-02-11 09:22:00,
2016-02-11 04:27:00,48.3,44.9,30.27,NNE,25,1.0,4.0,88,0.00,,---,0.00,VWS V15.00,2016-02-11 09:27:00,
2016-02-11 04:32:00,49.1,44.8,30.27,NNE,25,0.0,4.0,85,0.00,,---,0.00,VWS V15.00,2016-02-11 09:32:00,
2016-02-11 04:37:00,49.7,44.4,30.27,NNE,25,2.0,6.0,82,0.00,,---,0.00,VWS V15.00,2016-02-11 09:37:00,
2016-02-11 04:42:00,50.0,44.4,30.27,NNE,25,1.0,5.0,81,0.00,,---,0.00,VWS V15.00,2016-02-11 09:42:00,
2016-02-11 04:47:00,50.1,44.2,30.27,NNE,25,0.0,4.0,80,0.00,,---,0.00,VWS V15.00,2016-02-11 09:47:00,
2016-02-11 04:52:00,50.2,44.3,30.27,NNE,25,0.0,2.0,80,0.00,,---,0.00,VWS V15.00,2016-02-11 09:52:00,
2016-02-11 04:57:00,50.0,44.1,30.27,NNE,25,0.0,0.0,80,0.00,,---,0.00,VWS V15.00,2016-02-11 09:57:00,
2016-02-11 05:12:00,48.6,43.4,30.28,NNE,25,0.0,0.0,82,0.00,,---,0.00,VWS V15.00,2016-02-11 10:12:00,
2016-02-11 05:17:00,48.2,43.6,30.28,NNE,25,0.0,0.0,84,0.00,,---,0.00,VWS V15.00,2016-02-11 10:17:00,
2016-02-11 05:22:00,48.0,44.0,30.28,NNE,25,0.0,1.0,86,0.00,,---,0.00,VWS V15.00,2016-02-11 10:22:00,
2016-02-11 05:27:00,47.8,44.1,30.28,NNE,25,0.0,1.0,87,0.00,,---,0.00,VWS V15.00,2016-02-11 10:27:00,
2016-02-11 05:32:00,47.6,43.9,30.28,NNE,25,0.0,1.0,87,0.00,,---,0.00,VWS V15.00,2016-02-11 10:32:00,
2016-02-11 05:37:00,47.5,43.8,30.28,NNE,25,0.0,1.0,87,0.00,,---,0.00,VWS V15.00,2016-02-11 10:37:00,
2016-02-11 05:42:00,47.5,44.1,30.28,NNE,25,1.0,1.0,88,0.00,,---,0.00,VWS V15.00,2016-02-11 10:42:00,
2016-02-11 05:47:00,47.8,44.4,30.29,NNE,25,0.0,1.0,88,0.00,,---,0.00,VWS V15.00,2016-02-11 10:47:00,
2016-02-11 05:52:00,47.9,44.5,30.29,NNE,25,0.0,2.0,88,0.00,,---,0.00,VWS V15.00,2016-02-11 10:52:00,
2016-02-11 05:57:00,48.3,44.6,30.29,NNE,25,1.0,3.0,87,0.00,,---,0.00,VWS V15.00,2016-02-11 10:57:00,
2016-02-11 06:02:00,48.8,44.5,30.29,NNE,25,0.0,5.0,85,0.00,,---,0.00,VWS V15.00,2016-02-11 11:02:00,
2016-02-11 06:07:00,49.2,44.6,30.29,NNE,25,0.0,3.0,84,0.00,,---,0.00,VWS V15.00,2016-02-11 11:07:00,
2016-02-11 06:12:00,49.3,44.4,30.30,NNE,25,0.0,3.0,83,0.00,,---,0.00,VWS V15.00,2016-02-11 11:12:00,
2016-02-11 06:17:00,49.3,44.4,30.30,NNE,25,0.0,1.0,83,0.00,,---,0.00,VWS V15.00,2016-02-11 11:17:00,
2016-02-11 06:22:00,49.0,44.4,30.30,NNE,25,0.0,0.0,84,0.00,,---,0.00,VWS V15.00,2016-02-11 11:22:00,
2016-02-11 06:27:00,48.5,43.9,30.30,NNE,25,0.0,0.0,84,0.00,,---,0.00,VWS V15.00,2016-02-11 11:27:00,
2016-02-11 06:32:00,47.9,43.6,30.31,NNE,25,0.0,0.0,85,0.00,,---,0.00,VWS V15.00,2016-02-11 11:32:00,
2016-02-11 06:37:00,47.4,43.4,30.31,NNE,25,0.0,0.0,86,0.00,,---,0.00,VWS V15.00,2016-02-11 11:37:00,
2016-02-11 06:42:00,46.9,42.9,30.31,NNE,25,0.0,0.0,86,0.00,,---,0.00,VWS V15.00,2016-02-11 11:42:00,
2016-02-11 06:47:00,46.5,42.5,30.31,NNE,25,0.0,0.0,86,0.00,,---,0.00,VWS V15.00,2016-02-11 11:47:00,
2016-02-11 06:52:00,46.4,43.0,30.31,NNE,25,0.0,0.0,88,0.00,,---,0.00,VWS V15.00,2016-02-11 11:52:00,
2016-02-11 06:57:00,46.5,43.4,30.32,NNE,25,0.0,1.0,89,0.00,,---,0.00,VWS V15.00,2016-02-11 11:57:00,
2016-02-11 07:02:00,46.4,43.3,30.32,NNE,25,0.0,1.0,89,0.00,,---,0.00,VWS V15.00,2016-02-11 12:02:00,
2016-02-11 07:07:00,46.5,43.7,30.32,NNE,25,0.0,1.0,90,0.00,,---,0.00,VWS V15.00,2016-02-11 12:07:00,
2016-02-11 07:12:00,46.6,43.8,30.32,NNE,25,0.0,0.0,90,0.00,,---,0.00,VWS V15.00,2016-02-11 12:12:00,
2016-02-11 07:17:00,46.9,44.1,30.32,NNE,25,6.0,6.0,90,0.00,,---,0.00,VWS V15.00,2016-02-11 12:17:00,
2016-02-11 07:22:00,47.7,44.9,30.32,NNE,25,0.0,6.0,90,0.00,,---,0.00,VWS V15.00,2016-02-11 12:22:00,
2016-02-11 07:32:00,48.7,45.3,30.33,NNE,25,0.0,4.0,88,0.00,,---,0.00,VWS V15.00,2016-02-11 12:32:00,
2016-02-11 07:37:00,49.0,45.3,30.33,NNE,25,1.0,4.0,87,0.00,,---,0.00,VWS V15.00,2016-02-11 12:37:00,
2016-02-11 07:42:00,49.2,45.5,30.33,NNE,25,1.0,4.0,87,0.00,,---,0.00,VWS V15.00,2016-02-11 12:42:00,
2016-02-11 07:47:00,49.5,45.8,30.33,NNE,25,2.0,4.0,87,0.00,,---,0.00,VWS V15.00,2016-02-11 12:47:00,
2016-02-11 07:52:00,49.8,45.8,30.33,NNE,25,3.0,6.0,86,0.00,,---,0.00,VWS V15.00,2016-02-11 12:52:00,
2016-02-11 07:57:00,50.1,46.1,30.33,NNE,25,4.0,5.0,86,0.00,,---,0.00,VWS V15.00,2016-02-11 12:57:00,
2016-02-11 08:02:00,50.2,45.9,30.33,NE,55,4.0,5.0,85,0.00,,---,0.00,VWS V15.00,2016-02-11 13:02:00,
2016-02-11 08:07:00,50.2,45.6,30.33,ENE,57,3.0,7.0,84,0.00,,---,0.00,VWS V15.00,2016-02-11 13:07:00,
2016-02-11 08:12:00,50.3,46.0,30.34,ENE,57,2.0,7.0,85,0.00,,---,0.00,VWS V15.00,2016-02-11 13:12:00,
2016-02-11 08:17:00,50.5,46.2,30.34,ENE,69,9.0,9.0,85,0.00,,---,0.00,VWS V15.00,2016-02-11 13:17:00,
2016-02-11 08:22:00,50.4,45.8,30.34,ENE,73,3.0,9.0,84,0.00,,---,0.00,VWS V15.00,2016-02-11 13:22:00,
2016-02-11 08:27:00,50.5,45.8,30.34,ENE,73,7.0,7.0,84,0.00,,---,0.00,VWS V15.00,2016-02-11 13:27:00,
2016-02-11 08:32:00,50.4,45.8,30.34,ENE,72,8.0,10.0,84,0.00,,---,0.00,VWS V15.00,2016-02-11 13:32:00,
2016-02-11 08:37:00,50.4,45.8,30.34,ENE,72,7.0,10.0,84,0.00,,---,0.00,VWS V15.00,2016-02-11 13:37:00,
2016-02-11 08:42:00,50.4,45.8,30.34,ENE,69,4.0,9.0,84,0.00,,---,0.00,VWS V15.00,2016-02-11 13:42:00,
2016-02-11 08:47:00,50.6,45.6,30.34,ENE,69,5.0,10.0,83,0.00,,---,0.00,VWS V15.00,2016-02-11 13:47:00,
2016-02-11 08:52:00,50.8,45.8,30.34,ENE,69,4.0,8.0,83,0.00,,---,0.00,VWS V15.00,2016-02-11 13:52:00,
2016-02-11 08:57:00,51.0,46.3,30.35,ENE,69,7.0,10.0,84,0.00,,---,0.00,VWS V15.00,2016-02-11 13:57:00,
2016-02-11 09:02:00,51.4,46.4,30.35,ENE,69,5.0,8.0,83,0.00,,---,0.00,VWS V15.00,2016-02-11 14:02:00,
2016-02-11 09:07:00,51.7,46.4,30.35,ENE,69,7.0,9.0,82,0.00,,---,0.00,VWS V15.00,2016-02-11 14:07:00,
2016-02-11 09:12:00,51.9,46.6,30.35,ENE,69,7.0,10.0,82,0.00,,---,0.00,VWS V15.00,2016-02-11 14:12:00,
2016-02-11 09:17:00,52.0,46.4,30.35,ENE,69,7.0,11.0,81,0.00,,---,0.00,VWS V15.00,2016-02-11 14:17:00,
2016-02-11 09:22:00,52.1,46.5,30.35,ENE,70,3.0,10.0,81,0.00,,---,0.00,VWS V15.00,2016-02-11 14:22:00,
2016-02-11 09:32:00,52.4,46.8,30.35,ENE,78,5.0,10.0,81,0.00,,---,0.00,VWS V15.00,2016-02-11 14:32:00,
2016-02-11 09:37:00,52.6,46.9,30.36,ENE,78,2.0,8.0,81,0.00,,---,0.00,VWS V15.00,2016-02-11 14:37:00,
2016-02-11 09:47:00,53.3,47.3,30.36,East,80,6.0,8.0,80,0.00,,---,0.00,VWS V15.00,2016-02-11 14:47:00,
2016-02-11 09:52:00,53.5,47.2,30.36,East,79,2.0,9.0,79,0.00,,---,0.00,VWS V15.00,2016-02-11 14:52:00,
2016-02-11 09:57:00,53.6,47.3,30.36,East,80,2.0,8.0,79,0.00,,---,0.00,VWS V15.00,2016-02-11 14:57:00,
2016-02-11 10:02:00,53.8,47.5,30.36,East,80,2.0,9.0,79,0.00,,---,0.00,VWS V15.00,2016-02-11 15:02:00,
2016-02-11 10:07:00,54.0,47.3,30.37,ENE,75,2.0,10.0,78,0.00,,---,0.00,VWS V15.00,2016-02-11 15:07:00,
2016-02-11 10:17:00,54.6,47.2,30.37,ENE,78,5.0,8.0,76,0.00,,---,0.00,VWS V15.00,2016-02-11 15:17:00,
2016-02-11 10:22:00,54.7,47.3,30.37,ENE,76,7.0,9.0,76,0.00,,---,0.00,VWS V15.00,2016-02-11 15:22:00,
2016-02-11 10:27:00,55.1,47.7,30.37,East,82,2.0,8.0,76,0.00,,---,0.00,VWS V15.00,2016-02-11 15:27:00,
2016-02-11 10:37:00,55.5,47.4,30.37,East,82,5.0,7.0,74,0.00,,---,0.00,VWS V15.00,2016-02-11 15:37:00,
2016-02-11 10:42:00,55.5,47.4,30.37,ENE,77,4.0,9.0,74,0.00,,---,0.00,VWS V15.00,2016-02-11 15:42:00,
2016-02-11 10:47:00,55.8,47.7,30.37,ENE,77,1.0,7.0,74,0.00,,---,0.00,VWS V15.00,2016-02-11 15:47:00,
2016-02-11 10:52:00,56.0,47.5,30.36,ENE,77,5.0,5.0,73,0.00,,---,0.00,VWS V15.00,2016-02-11 15:52:00,
2016-02-11 10:57:00,56.2,47.7,30.36,ENE,73,2.0,7.0,73,0.00,,---,0.00,VWS V15.00,2016-02-11 15:57:00,
2016-02-11 11:02:00,56.2,46.9,30.36,ENE,71,3.0,9.0,71,0.00,,---,0.00,VWS V15.00,2016-02-11 16:02:00,
2016-02-11 11:07:00,56.4,47.5,30.36,East,85,2.0,8.0,72,0.00,,---,0.00,VWS V15.00,2016-02-11 16:07:00,
2016-02-11 11:17:00,56.9,47.6,30.35,East,85,2.0,6.0,71,0.00,,---,0.00,VWS V15.00,2016-02-11 16:17:00,
2016-02-11 11:22:00,57.1,47.4,30.35,East,94,5.0,9.0,70,0.00,,---,0.00,VWS V15.00,2016-02-11 16:22:00,
2016-02-11 11:27:00,57.2,46.8,30.35,East,94,2.0,7.0,68,0.00,,---,0.00,VWS V15.00,2016-02-11 16:27:00,
2016-02-11 11:32:00,57.5,47.4,30.35,East,90,2.0,7.0,69,0.00,,---,0.00,VWS V15.00,2016-02-11 16:32:00,
2016-02-11 11:37:00,57.7,47.2,30.35,East,84,0.0,8.0,68,0.00,,---,0.00,VWS V15.00,2016-02-11 16:37:00,
2016-02-11 11:42:00,57.7,46.8,30.35,East,84,2.0,7.0,67,0.00,,---,0.00,VWS V15.00,2016-02-11 16:42:00,
2016-02-11 11:47:00,57.9,47.0,30.35,East,84,5.0,6.0,67,0.00,,---,0.00,VWS V15.00,2016-02-11 16:47:00,
2016-02-11 11:52:00,58.4,47.1,30.34,East,84,3.0,7.0,66,0.00,,---,0.00,VWS V15.00,2016-02-11 16:52:00,
2016-02-11 11:57:00,58.7,47.0,30.34,East,84,3.0,8.0,65,0.00,,---,0.00,VWS V15.00,2016-02-11 16:57:00,
2016-02-11 12:02:00,58.7,46.6,30.34,East,82,3.0,8.0,64,0.00,,---,0.00,VWS V15.00,2016-02-11 17:02:00,
2016-02-11 12:07:00,59.0,46.8,30.34,East,82,6.0,7.0,64,0.00,,---,0.00,VWS V15.00,2016-02-11 17:07:00,
2016-02-11 12:12:00,59.3,46.3,30.33,East,82,5.0,7.0,62,0.00,,---,0.00,VWS V15.00,2016-02-11 17:12:00,
2016-02-11 12:17:00,59.4,46.0,30.33,ENE,73,0.0,9.0,61,0.00,,---,0.00,VWS V15.00,2016-02-11 17:17:00,
2016-02-11 12:22:00,59.6,46.2,30.33,ENE,73,0.0,8.0,61,0.00,,---,0.00,VWS V15.00,2016-02-11 17:22:00,
2016-02-11 12:27:00,59.6,45.7,30.33,ENE,73,0.0,7.0,60,0.00,,---,0.00,VWS V15.00,2016-02-11 17:27:00,
2016-02-11 12:32:00,59.9,46.0,30.32,ENE,73,0.0,4.0,60,0.00,,---,0.00,VWS V15.00,2016-02-11 17:32:00,
2016-02-11 12:37:00,60.3,46.8,30.32,ENE,73,3.0,7.0,61,0.00,,---,0.00,VWS V15.00,2016-02-11 17:37:00,
2016-02-11 12:42:00,60.7,47.2,30.32,ENE,73,1.0,1.0,61,0.00,,---,0.00,VWS V15.00,2016-02-11 17:42:00,
2016-02-11 12:47:00,61.1,46.7,30.32,ENE,73,4.0,4.0,59,0.00,,---,0.00,VWS V15.00,2016-02-11 17:47:00,
2016-02-11 12:53:00,61.2,46.3,30.31,ENE,73,1.0,2.0,58,0.00,,---,0.00,VWS V15.00,2016-02-11 17:53:00,
2016-02-11 12:58:00,61.1,46.2,30.30,ENE,73,4.0,4.0,58,0.00,,---,0.00,VWS V15.00,2016-02-11 17:58:00,
2016-02-11 13:03:00,61.2,45.4,30.30,ENE,73,7.0,7.0,56,0.00,,---,0.00,VWS V15.00,2016-02-11 18:03:00,
2016-02-11 13:08:00,61.6,45.8,30.30,ENE,73,2.0,4.0,56,0.00,,---,0.00,VWS V15.00,2016-02-11 18:08:00,
2016-02-11 13:13:00,61.7,45.4,30.30,East,90,6.0,7.0,55,0.00,,---,0.00,VWS V15.00,2016-02-11 18:13:00,
2016-02-11 13:18:00,61.8,45.5,30.30,East,90,2.0,3.0,55,0.00,,---,0.00,VWS V15.00,2016-02-11 18:18:00,